Ship Status Report: callsign NRPK

sailwx.info

Track history (hours):
 
Tides and Currents Weather Stations Pressure Air Temp Water Temp Dewpoint Dewpoint Depression Visibility Wind Speed Wind Dir Waves Ship Positions

Callsign NRPK (name unknown)

Last reported at 2015-Mar-02 20:28 UTC. Time now 2015-Mar-02 20:41 UTC.
Position N 40°40' W 074°05'.

AWS

Date/timePositionNaut miles runAvg speedWind from/ knotsBaromVisibWave heightAir tempDewpointWater temp
2015-Mar-02 20:28N 40°40' W 074°05'0 0.0
2015-Mar-02 19:29N 40°40' W 074°05'0 0.0
2015-Mar-02 18:29N 40°40' W 074°05'0 0.0
2015-Mar-02 17:28N 40°40' W 074°05'0 0.0
2015-Mar-02 16:16N 40°40' W 074°05'1 1.5
2015-Mar-02 15:33N 40°40' W 074°04'5310.2
2015-Mar-02 10:21N 39°50' W 073°41'1012.0
2015-Mar-02 09:32N 39°41' W 073°47'  
2015-Feb-25 00:12N 38°32' W 074°48'914.3
2015-Feb-24 23:33N 38°39' W 074°55'1413.8
2015-Feb-24 22:33N 38°51' W 075°04'1312.6
2015-Feb-24 21:34N 39°03' W 075°10'1212.0
2015-Feb-24 20:33N 39°13' W 075°18'1110.6
2015-Feb-24 19:33N 39°21' W 075°27'1 1.5
2015-Feb-24 18:33N 39°23' W 075°28'4 4.1
2015-Feb-24 17:33N 39°26' W 075°31'5 4.6
2015-Feb-24 16:34N 39°30' W 075°33'1212.1
2015-Feb-24 15:34N 39°42' W 075°31'1 0.6
2015-Feb-24 14:33N 39°43' W 075°31'0 0.0
2015-Feb-24 13:33N 39°43' W 075°31'0 0.0
2015-Feb-24 12:33N 39°43' W 075°31'0 0.0
2015-Feb-24 11:32N 39°43' W 075°31'0 0.0
2015-Feb-24 10:32N 39°43' W 075°31'0 0.0
2015-Feb-24 09:32N 39°43' W 075°31'0 0.0
2015-Feb-24 08:30N 39°43' W 075°31'0 0.0
2015-Feb-24 07:32N 39°43' W 075°31'0 0.0
2015-Feb-24 06:32N 39°43' W 075°31'0 0.0
2015-Feb-24 05:32N 39°43' W 075°31'0 0.0
2015-Feb-24 04:32N 39°43' W 075°31'0 0.0
2015-Feb-24 03:33N 39°43' W 075°31'0 0.0
2015-Feb-24 02:30N 39°43' W 075°31'0 0.0
2015-Feb-24 01:33N 39°43' W 075°31'0 0.0
2015-Feb-24 00:33N 39°43' W 075°31'0 0.2
2015-Feb-23 23:33N 39°42' W 075°31'9 8.5
2015-Feb-23 22:33N 39°34' W 075°33'8 7.9
2015-Feb-23 21:33N 39°26' W 075°32'2 1.7
2015-Feb-23 20:33N 39°25' W 075°31'0 0.0
2015-Feb-23 19:33N 39°25' W 075°31'0 0.3
2015-Feb-23 18:33N 39°25' W 075°30'7 6.5
2015-Feb-23 17:33N 39°20' W 075°25'1312.7
2015-Feb-23 16:33N 39°10' W 075°15'1111.1
2015-Feb-23 15:32N 38°60' W 075°08'20 1.3
2015-Feb-23 00:05N 38°41' W 075°01'0 0.0
2015-Feb-22 22:13N 38°41' W 075°01'  
Track history (hours):
 
Tides and Currents Weather Stations Pressure Air Temp Water Temp Dewpoint Dewpoint Depression Visibility Wind Speed Wind Dir Waves Ship Positions

Callsign NRPK (name unknown)

Last reported at 2015-Mar-02 20:28 UTC. Time now 2015-Mar-02 20:41 UTC.
Position N 40°40' W 074°05'.

AWS

Date/timePositionNaut miles runAvg speedWind from/ knotsBaromVisibWave heightAir tempDewpointWater temp
2015-Mar-02 20:28N 40°40' W 074°05'0 0.0
2015-Mar-02 19:29N 40°40' W 074°05'0 0.0
2015-Mar-02 18:29N 40°40' W 074°05'0 0.0
2015-Mar-02 17:28N 40°40' W 074°05'0 0.0
2015-Mar-02 16:16N 40°40' W 074°05'1 1.5
2015-Mar-02 15:33N 40°40' W 074°04'5310.2
2015-Mar-02 10:21N 39°50' W 073°41'1012.0
2015-Mar-02 09:32N 39°41' W 073°47'  
2015-Feb-25 00:12N 38°32' W 074°48'914.3
2015-Feb-24 23:33N 38°39' W 074°55'1413.8
2015-Feb-24 22:33N 38°51' W 075°04'1312.6
2015-Feb-24 21:34N 39°03' W 075°10'1212.0
2015-Feb-24 20:33N 39°13' W 075°18'1110.6
2015-Feb-24 19:33N 39°21' W 075°27'1 1.5
2015-Feb-24 18:33N 39°23' W 075°28'4 4.1
2015-Feb-24 17:33N 39°26' W 075°31'5 4.6
2015-Feb-24 16:34N 39°30' W 075°33'1212.1
2015-Feb-24 15:34N 39°42' W 075°31'1 0.6
2015-Feb-24 14:33N 39°43' W 075°31'0 0.0
2015-Feb-24 13:33N 39°43' W 075°31'0 0.0
2015-Feb-24 12:33N 39°43' W 075°31'0 0.0
2015-Feb-24 11:32N 39°43' W 075°31'0 0.0
2015-Feb-24 10:32N 39°43' W 075°31'0 0.0
2015-Feb-24 09:32N 39°43' W 075°31'0 0.0
2015-Feb-24 08:30N 39°43' W 075°31'0 0.0
2015-Feb-24 07:32N 39°43' W 075°31'0 0.0
2015-Feb-24 06:32N 39°43' W 075°31'0 0.0
2015-Feb-24 05:32N 39°43' W 075°31'0 0.0
2015-Feb-24 04:32N 39°43' W 075°31'0 0.0
2015-Feb-24 03:33N 39°43' W 075°31'0 0.0
2015-Feb-24 02:30N 39°43' W 075°31'0 0.0
2015-Feb-24 01:33N 39°43' W 075°31'0 0.0
2015-Feb-24 00:33N 39°43' W 075°31'0 0.2
2015-Feb-23 23:33N 39°42' W 075°31'9 8.5
2015-Feb-23 22:33N 39°34' W 075°33'8 7.9
2015-Feb-23 21:33N 39°26' W 075°32'2 1.7
2015-Feb-23 20:33N 39°25' W 075°31'0 0.0
2015-Feb-23 19:33N 39°25' W 075°31'0 0.3
2015-Feb-23 18:33N 39°25' W 075°30'7 6.5
2015-Feb-23 17:33N 39°20' W 075°25'1312.7
2015-Feb-23 16:33N 39°10' W 075°15'1111.1
2015-Feb-23 15:32N 38°60' W 075°08'20 1.3
2015-Feb-23 00:05N 38°41' W 075°01'0 0.0
2015-Feb-22 22:13N 38°41' W 075°01'  

Dump ship's entire track history